Time;durP1;ratioP1;P1;durP2;ratioP2;P2;SDS_P1;SDS_P2;PMS_P1;PMS_P2;Temp;Humidity;BMP_temperature;BMP_pressure;BME280_temperature;BME280_humidity;BME280_pressure;Samples;Min_cycle;Max_cycle;Signal;HPM_P1;HPM_P2
2023/05/01 00:01:19;;;;;;;10.57;8.80;;;11.90;99.90;;;;;;5071104;28;20027;-82
2023/05/01 00:03:45;;;;;;;9.77;7.55;;;11.90;99.90;;;;;;5072741;28;20036;-82
2023/05/01 00:06:11;;;;;;;10.18;8.13;;;11.80;99.90;;;;;;5070841;28;20116;-81
2023/05/01 00:08:37;;;;;;;9.38;8.10;;;11.70;99.90;;;;;;5072287;28;20038;-82
2023/05/01 00:11:03;;;;;;;11.02;8.45;;;11.70;99.90;;;;;;5072958;28;20025;-80
2023/05/01 00:13:30;;;;;;;12.30;8.82;;;11.70;99.90;;;;;;5074877;28;20025;-81
2023/05/01 00:15:56;;;;;;;13.20;7.97;;;11.60;99.90;;;;;;5076420;28;20036;-81
2023/05/01 00:18:21;;;;;;;9.10;8.20;;;11.70;99.90;;;;;;5076106;28;20036;-81
2023/05/01 00:20:47;;;;;;;8.38;7.50;;;11.70;99.90;;;;;;5076273;28;20461;-80
2023/05/01 00:23:13;;;;;;;10.18;8.80;;;11.70;99.90;;;;;;5074931;28;20021;-82
2023/05/01 00:25:39;;;;;;;10.75;8.32;;;11.70;99.90;;;;;;5074562;28;20031;-80
2023/05/01 00:28:05;;;;;;;10.98;8.48;;;11.70;99.90;;;;;;5073973;28;20210;-80
2023/05/01 00:30:34;;;;;;;8.02;7.22;;;11.60;99.90;;;;;;5074534;28;20052;-81
2023/05/01 00:33:00;;;;;;;8.63;7.57;;;11.50;99.90;;;;;;5075634;28;20020;-81
2023/05/01 00:35:26;;;;;;;9.38;7.80;;;11.60;99.90;;;;;;5075652;28;20040;-80
2023/05/01 00:37:52;;;;;;;9.52;7.40;;;11.60;99.90;;;;;;5075945;28;20033;-82
2023/05/01 00:40:18;;;;;;;13.88;8.35;;;11.60;99.90;;;;;;5076050;28;20071;-81
2023/05/01 00:42:44;;;;;;;10.60;9.07;;;11.60;99.90;;;;;;5075448;28;20380;-81
2023/05/01 00:45:10;;;;;;;9.75;8.75;;;11.60;99.90;;;;;;5075806;28;20059;-82
2023/05/01 00:47:37;;;;;;;12.95;8.48;;;11.60;99.90;;;;;;5074153;28;20032;-80
2023/05/01 00:50:04;;;;;;;11.85;8.50;;;11.60;99.90;;;;;;5073497;28;20508;-81
2023/05/01 00:52:29;;;;;;;9.90;8.02;;;11.60;99.90;;;;;;5073971;28;20168;-80
2023/05/01 00:54:56;;;;;;;11.38;8.25;;;11.60;99.90;;;;;;5073799;28;20123;-81
2023/05/01 00:57:22;;;;;;;10.63;8.63;;;11.50;99.90;;;;;;5073810;28;20020;-80
2023/05/01 00:59:48;;;;;;;11.63;8.25;;;11.50;99.90;;;;;;5074144;28;20661;-80
2023/05/01 01:02:14;;;;;;;10.15;8.10;;;11.50;99.90;;;;;;5072512;28;20049;-80
2023/05/01 01:04:45;;;;;;;9.25;8.23;;;11.30;99.90;;;;;;5073358;28;20028;-81
2023/05/01 01:07:49;;;;;;;8.40;7.60;;;11.30;99.90;;;;;;5073977;28;20534;-81
2023/05/01 01:10:40;;;;;;;8.02;7.25;;;11.30;99.90;;;;;;5074774;28;20260;-80
2023/05/01 01:13:13;;;;;;;8.50;7.60;;;11.30;99.90;;;;;;5068314;28;20092;-80
2023/05/01 01:15:54;;;;;;;8.07;7.22;;;11.40;99.90;;;;;;5072715;28;20485;-80
2023/05/01 01:18:41;;;;;;;9.63;7.68;;;11.30;99.90;;;;;;5071982;28;20032;-81
2023/05/01 01:21:43;;;;;;;10.65;7.75;;;11.30;99.90;;;;;;5069903;28;20451;-81
2023/05/01 01:24:23;;;;;;;13.18;9.13;;;11.30;99.90;;;;;;5030813;28;20099;-81
2023/05/01 01:27:14;;;;;;;12.57;8.30;;;11.20;99.90;;;;;;5032967;28;20135;-81
2023/05/01 01:30:01;;;;;;;11.63;7.33;;;11.20;99.90;;;;;;5010356;28;20029;-81
2023/05/01 01:33:16;;;;;;;11.90;8.02;;;11.10;99.90;;;;;;5032180;28;20484;-81
2023/05/01 01:35:52;;;;;;;8.50;7.70;;;11.20;99.90;;;;;;5020127;28;20025;-81
2023/05/01 01:38:26;;;;;;;9.32;8.07;;;11.20;99.90;;;;;;5032067;28;20383;-80
2023/05/01 01:40:57;;;;;;;13.40;8.45;;;11.20;99.90;;;;;;5032928;28;20456;-81
2023/05/01 01:43:25;;;;;;;10.65;8.35;;;11.10;99.90;;;;;;5015443;28;20408;-81
2023/05/01 01:45:59;;;;;;;14.05;8.32;;;11.20;99.90;;;;;;5032233;28;20129;-81
2023/05/01 01:48:31;;;;;;;11.30;8.20;;;11.10;99.90;;;;;;5032113;28;20029;-81
2023/05/01 01:50:59;;;;;;;8.90;7.13;;;11.10;99.90;;;;;;5031681;28;20037;-80
2023/05/01 01:53:28;;;;;;;8.80;7.63;;;11.10;99.90;;;;;;5032057;28;20213;-81
2023/05/01 01:55:56;;;;;;;8.27;6.88;;;11.10;99.90;;;;;;5031947;28;20029;-80
2023/05/01 01:58:25;;;;;;;9.90;8.15;;;11.10;99.90;;;;;;5057876;28;20085;-81
2023/05/01 02:00:52;;;;;;;8.38;7.00;;;11.10;99.90;;;;;;5072928;28;20367;-81
2023/05/01 02:03:20;;;;;;;11.85;7.82;;;11.00;99.90;;;;;;5074198;28;20061;-81
2023/05/01 02:05:47;;;;;;;7.70;7.00;;;11.00;99.90;;;;;;5072595;28;20044;-80
2023/05/01 02:08:15;;;;;;;8.88;8.07;;;11.00;99.90;;;;;;5072751;28;20024;-81
2023/05/01 02:10:42;;;;;;;7.32;6.63;;;10.90;99.90;;;;;;5072907;28;20020;-81
2023/05/01 02:13:09;;;;;;;8.95;7.18;;;10.90;99.90;;;;;;5072300;28;20027;-80
2023/05/01 02:15:36;;;;;;;10.23;7.40;;;10.90;99.90;;;;;;5073957;28;20082;-80
2023/05/01 02:18:03;;;;;;;9.73;7.72;;;10.90;99.90;;;;;;5073756;28;20020;-81
2023/05/01 02:20:29;;;;;;;8.13;7.32;;;10.80;99.90;;;;;;5074170;28;20053;-80
2023/05/01 02:22:57;;;;;;;9.43;7.13;;;10.80;99.90;;;;;;5073184;28;20067;-80
2023/05/01 02:25:23;;;;;;;8.68;7.30;;;10.80;99.90;;;;;;5074435;28;20031;-81
2023/05/01 02:27:58;;;;;;;9.60;7.57;;;10.80;99.90;;;;;;5074206;28;20020;-80
2023/05/01 02:30:24;;;;;;;8.00;7.20;;;10.80;99.90;;;;;;5072836;28;20036;-81
2023/05/01 02:32:50;;;;;;;9.95;7.70;;;10.70;99.90;;;;;;5072886;28;20501;-80
2023/05/01 02:35:16;;;;;;;15.13;8.45;;;10.70;99.90;;;;;;5073580;28;20067;-81
2023/05/01 02:37:43;;;;;;;10.35;9.18;;;10.70;99.90;;;;;;5073104;28;20112;-80
2023/05/01 02:40:12;;;;;;;10.38;7.55;;;10.70;99.90;;;;;;5074340;28;20013;-80
2023/05/01 02:42:39;;;;;;;9.48;8.35;;;10.70;99.90;;;;;;5072540;28;20449;-78
2023/05/01 02:45:07;;;;;;;18.20;7.85;;;10.60;99.90;;;;;;5074456;28;20363;-78
2023/05/01 02:47:38;;;;;;;11.07;8.25;;;10.60;99.90;;;;;;5072118;28;20019;-77
2023/05/01 02:50:06;;;;;;;10.23;8.38;;;10.60;99.90;;;;;;5068648;28;20030;-77
2023/05/01 02:52:33;;;;;;;11.60;7.85;;;10.60;99.90;;;;;;5066782;28;20028;-78
2023/05/01 02:54:59;;;;;;;12.18;8.00;;;10.60;99.90;;;;;;5071704;28;20020;-78
2023/05/01 02:57:25;;;;;;;10.88;7.93;;;10.60;99.90;;;;;;5070108;28;20024;-78
2023/05/01 02:59:51;;;;;;;11.45;8.63;;;10.60;99.90;;;;;;5072994;28;20028;-78
2023/05/01 03:02:17;;;;;;;9.77;7.68;;;10.60;99.90;;;;;;5073230;28;20099;-77
2023/05/01 03:04:42;;;;;;;9.48;6.97;;;10.60;99.90;;;;;;5071952;28;20371;-77
2023/05/01 03:07:08;;;;;;;9.85;7.45;;;10.60;99.90;;;;;;5073248;28;20025;-78
2023/05/01 03:09:34;;;;;;;11.65;8.00;;;10.50;99.90;;;;;;5072555;28;20032;-77
2023/05/01 03:12:01;;;;;;;11.27;8.77;;;10.50;99.90;;;;;;5072977;28;20100;-78
2023/05/01 03:14:28;;;;;;;12.65;9.52;;;10.50;99.90;;;;;;5071956;28;20025;-78
2023/05/01 03:16:54;;;;;;;10.02;8.32;;;10.50;99.90;;;;;;5072433;28;20029;-78
2023/05/01 03:19:20;;;;;;;14.15;10.13;;;10.60;99.90;;;;;;5072591;28;20078;-78
2023/05/01 03:21:46;;;;;;;13.85;9.98;;;10.60;99.90;;;;;;5071681;28;20029;-78
2023/05/01 03:24:12;;;;;;;11.13;8.57;;;10.60;99.90;;;;;;5071171;28;20059;-78
2023/05/01 03:26:37;;;;;;;13.20;9.85;;;10.60;99.90;;;;;;5072832;28;20145;-77
2023/05/01 03:29:03;;;;;;;12.15;9.60;;;10.60;99.90;;;;;;5072802;28;20066;-78
2023/05/01 03:31:29;;;;;;;13.35;9.07;;;10.60;99.90;;;;;;5071893;28;20459;-77
2023/05/01 03:33:55;;;;;;;14.27;9.60;;;10.50;99.90;;;;;;5073400;28;20429;-78
2023/05/01 03:36:21;;;;;;;9.93;8.77;;;10.60;99.90;;;;;;5071967;28;20029;-78
2023/05/01 03:38:47;;;;;;;12.90;8.25;;;10.60;99.90;;;;;;5073676;28;20038;-77
2023/05/01 03:41:13;;;;;;;14.00;8.70;;;10.60;99.90;;;;;;5073507;28;20039;-78
2023/05/01 03:43:38;;;;;;;16.90;8.90;;;10.60;99.90;;;;;;5072342;28;20036;-77
2023/05/01 03:46:04;;;;;;;12.85;8.35;;;10.50;99.90;;;;;;5073181;28;20048;-77
2023/05/01 03:48:30;;;;;;;14.45;9.65;;;10.50;99.90;;;;;;5075236;28;20029;-77
2023/05/01 03:50:57;;;;;;;11.02;8.82;;;10.50;99.90;;;;;;5076507;28;20025;-78
2023/05/01 03:53:23;;;;;;;30.90;12.95;;;10.50;99.90;;;;;;5075895;28;20348;-78
2023/05/01 03:55:48;;;;;;;16.05;9.00;;;10.50;99.90;;;;;;5076491;28;20028;-78
2023/05/01 03:58:14;;;;;;;10.73;8.05;;;10.40;99.90;;;;;;5076282;28;20027;-77
2023/05/01 04:00:40;;;;;;;14.25;8.57;;;10.40;99.90;;;;;;5075547;28;20103;-78
2023/05/01 04:03:06;;;;;;;16.85;9.40;;;10.30;99.90;;;;;;5074418;28;20489;-77
2023/05/01 04:05:33;;;;;;;15.25;8.95;;;10.30;99.90;;;;;;5071477;28;20028;-77
2023/05/01 04:07:58;;;;;;;11.27;8.52;;;10.30;99.90;;;;;;5073978;28;20016;-78
2023/05/01 04:10:25;;;;;;;28.08;15.93;;;10.40;99.90;;;;;;5071977;28;20421;-77
2023/05/01 04:12:51;;;;;;;17.98;11.85;;;10.30;99.90;;;;;;5074670;28;20111;-77
2023/05/01 04:15:16;;;;;;;19.50;13.27;;;10.40;99.90;;;;;;5076244;28;20123;-78
2023/05/01 04:17:43;;;;;;;15.00;11.13;;;10.40;99.90;;;;;;5076514;28;20017;-78
2023/05/01 04:20:10;;;;;;;12.85;10.48;;;10.50;99.90;;;;;;5073399;28;20059;-78
2023/05/01 04:22:36;;;;;;;10.57;8.70;;;10.60;99.90;;;;;;5075497;28;20027;-78
2023/05/01 04:25:03;;;;;;;11.27;8.90;;;10.60;99.90;;;;;;5074945;28;20024;-78
2023/05/01 04:27:29;;;;;;;10.93;8.27;;;10.70;99.90;;;;;;5075673;28;20023;-77
2023/05/01 04:29:55;;;;;;;8.57;7.63;;;10.70;99.90;;;;;;5074444;28;20024;-77
2023/05/01 04:32:21;;;;;;;16.13;9.00;;;10.80;99.90;;;;;;5075927;28;20021;-77
2023/05/01 04:34:47;;;;;;;13.32;7.75;;;10.90;99.90;;;;;;5071537;28;20028;-77
2023/05/01 04:37:13;;;;;;;10.70;8.75;;;10.90;99.90;;;;;;5074346;28;20111;-78
2023/05/01 04:39:39;;;;;;;10.18;8.98;;;11.00;99.90;;;;;;5074393;28;20470;-78
2023/05/01 04:42:05;;;;;;;19.77;11.98;;;11.00;99.90;;;;;;5074788;28;20047;-79
2023/05/01 04:44:33;;;;;;;48.58;24.33;;;11.10;99.90;;;;;;5074715;28;20024;-79
2023/05/01 04:47:01;;;;;;;45.55;22.65;;;11.20;99.90;;;;;;5074927;28;20074;-79
2023/05/01 04:49:27;;;;;;;16.05;12.57;;;11.30;99.90;;;;;;5075762;28;20099;-79
2023/05/01 04:51:53;;;;;;;10.80;9.32;;;11.50;99.90;;;;;;5075861;28;20116;-78
2023/05/01 04:54:19;;;;;;;10.70;8.73;;;11.60;99.90;;;;;;5075423;28;20497;-78
2023/05/01 04:56:44;;;;;;;10.48;8.60;;;11.70;99.90;;;;;;5072187;28;20478;-79
2023/05/01 04:59:10;;;;;;;11.02;9.38;;;11.80;99.90;;;;;;5074247;28;20032;-79
2023/05/01 05:01:36;;;;;;;13.73;9.70;;;11.90;99.90;;;;;;5075162;28;20044;-79
2023/05/01 05:04:02;;;;;;;17.08;9.10;;;12.00;99.90;;;;;;5075385;28;20028;-79
2023/05/01 05:06:28;;;;;;;12.07;9.02;;;12.10;99.90;;;;;;5075693;28;20020;-79
2023/05/01 05:08:54;;;;;;;11.35;8.82;;;12.20;99.90;;;;;;5074404;28;20159;-80
2023/05/01 05:11:20;;;;;;;10.32;9.02;;;12.30;99.90;;;;;;5074058;28;20052;-79
2023/05/01 05:13:46;;;;;;;14.05;9.55;;;12.30;99.90;;;;;;5075248;28;20122;-79
2023/05/01 05:16:12;;;;;;;12.32;9.60;;;12.40;99.90;;;;;;5074748;28;20029;-79
2023/05/01 05:18:38;;;;;;;12.50;9.60;;;12.60;99.90;;;;;;5073725;28;20021;-79
2023/05/01 05:21:05;;;;;;;11.00;9.15;;;12.70;99.90;;;;;;5075566;28;20047;-79
2023/05/01 05:23:31;;;;;;;13.98;8.88;;;12.80;99.90;;;;;;5068129;28;20031;-79
2023/05/01 05:26:00;;;;;;;12.82;9.32;;;12.80;99.90;;;;;;5074589;28;20028;-79
2023/05/01 05:28:27;;;;;;;11.77;9.10;;;12.90;99.90;;;;;;5073314;28;20522;-79
2023/05/01 05:30:53;;;;;;;15.82;9.13;;;13.00;99.90;;;;;;5074112;28;20459;-79
2023/05/01 05:33:19;;;;;;;12.32;8.75;;;13.10;99.90;;;;;;5075238;28;20028;-81
2023/05/01 05:35:45;;;;;;;12.07;8.68;;;13.10;99.90;;;;;;5074787;28;20482;-80
2023/05/01 05:38:10;;;;;;;20.50;10.45;;;13.10;99.90;;;;;;5075496;28;20024;-80
2023/05/01 05:40:36;;;;;;;11.77;9.25;;;13.20;99.90;;;;;;5075094;28;20098;-81
2023/05/01 05:43:02;;;;;;;13.30;10.18;;;13.10;99.90;;;;;;5074195;28;20051;-80
2023/05/01 05:45:28;;;;;;;12.68;9.60;;;13.20;99.90;;;;;;5074542;28;20112;-80
2023/05/01 05:47:53;;;;;;;15.60;8.73;;;13.20;99.90;;;;;;5072916;28;20020;-79
2023/05/01 05:50:19;;;;;;;10.45;8.80;;;13.30;99.90;;;;;;5072445;28;20439;-79
2023/05/01 05:52:45;;;;;;;12.68;9.55;;;13.50;99.90;;;;;;5073302;28;20021;-80
2023/05/01 05:55:11;;;;;;;12.68;9.25;;;13.50;99.90;;;;;;5073014;28;20032;-81
2023/05/01 05:57:36;;;;;;;11.77;8.32;;;13.70;99.90;;;;;;5072538;28;20025;-80
2023/05/01 06:00:08;;;;;;;10.63;7.75;;;13.70;99.90;;;;;;5074066;28;20028;-81
2023/05/01 06:02:33;;;;;;;13.63;8.73;;;13.80;99.90;;;;;;5072639;28;20047;-81
2023/05/01 06:04:59;;;;;;;12.38;8.48;;;13.90;99.90;;;;;;5072518;28;20455;-80
2023/05/01 06:07:25;;;;;;;11.82;8.68;;;14.10;99.90;;;;;;5074013;28;20032;-81
2023/05/01 06:09:51;;;;;;;10.52;8.65;;;14.10;99.90;;;;;;5072374;28;20502;-80
2023/05/01 06:12:17;;;;;;;11.00;7.70;;;14.20;99.90;;;;;;5072359;28;20028;-81
2023/05/01 06:14:42;;;;;;;10.88;9.40;;;14.20;99.90;;;;;;5073773;28;20032;-81
2023/05/01 06:17:08;;;;;;;10.60;9.00;;;14.40;99.90;;;;;;5071992;28;20035;-81
2023/05/01 06:19:35;;;;;;;9.43;8.40;;;14.60;99.90;;;;;;5074020;28;20035;-81
2023/05/01 06:25:53;;;;;;;12.25;9.88;;;14.80;99.90;;;;;;5033608;27;2573105;-83
2023/05/01 06:28:20;;;;;;;15.32;8.57;;;14.80;99.90;;;;;;5104152;28;20115;-83
2023/05/01 06:30:46;;;;;;;9.95;8.25;;;14.70;99.90;;;;;;5106744;28;20024;-83
2023/05/01 06:33:12;;;;;;;15.23;8.40;;;14.90;99.90;;;;;;5108621;28;20458;-86
2023/05/01 06:35:38;;;;;;;15.00;8.45;;;15.00;99.90;;;;;;5109905;28;20059;-83
2023/05/01 06:38:04;;;;;;;10.55;8.38;;;15.20;99.90;;;;;;5109119;28;20032;-86
2023/05/01 06:40:31;;;;;;;13.80;8.10;;;15.30;99.90;;;;;;5110047;28;20046;-85
2023/05/01 06:42:57;;;;;;;12.05;8.98;;;15.50;99.90;;;;;;5109540;28;20024;-83
2023/05/01 06:45:23;;;;;;;9.68;8.18;;;15.60;99.90;;;;;;5099166;28;20454;-83
2023/05/01 06:47:48;;;;;;;10.15;7.20;;;15.80;99.90;;;;;;5098268;28;20063;-84
2023/05/01 06:50:14;;;;;;;13.20;7.82;;;15.80;99.90;;;;;;5107813;28;20032;-85
2023/05/01 06:52:41;;;;;;;12.70;8.77;;;16.00;99.90;;;;;;5109070;28;20020;-86
2023/05/01 06:55:07;;;;;;;11.50;8.63;;;16.10;99.90;;;;;;5109154;28;20058;-87
2023/05/01 06:57:32;;;;;;;9.20;7.38;;;16.30;99.90;;;;;;5105820;28;20016;-85
2023/05/01 06:59:58;;;;;;;11.07;8.20;;;16.50;99.90;;;;;;5110127;28;20088;-85
2023/05/01 07:02:24;;;;;;;9.32;8.25;;;16.70;99.90;;;;;;5101408;28;20281;-85
2023/05/01 07:04:50;;;;;;;9.57;8.00;;;16.70;99.90;;;;;;5108481;28;20024;-86
2023/05/01 07:07:16;;;;;;;9.75;8.30;;;16.90;99.90;;;;;;5104829;28;20035;-84
2023/05/01 07:09:42;;;;;;;10.70;8.80;;;17.00;99.90;;;;;;5103973;28;20027;-85
2023/05/01 07:12:07;;;;;;;13.27;8.27;;;17.20;99.80;;;;;;5104016;28;20343;-85
2023/05/01 07:14:34;;;;;;;8.13;7.30;;;17.10;97.60;;;;;;5108427;28;20046;-86
2023/05/01 07:17:01;;;;;;;11.10;8.38;;;17.30;99.30;;;;;;5107031;28;20020;-86
2023/05/01 07:19:27;;;;;;;9.95;8.13;;;17.50;98.90;;;;;;5109073;28;20024;-85
2023/05/01 07:21:52;;;;;;;8.35;7.15;;;17.50;99.80;;;;;;5105069;28;20141;-85
2023/05/01 07:24:19;;;;;;;8.68;7.32;;;17.70;96.80;;;;;;5107212;28;20079;-83
2023/05/01 07:26:44;;;;;;;8.23;7.43;;;17.70;94.40;;;;;;5109250;28;20107;-82
2023/05/01 07:29:12;;;;;;;9.52;7.95;;;17.90;97.40;;;;;;5108175;28;20119;-83
2023/05/01 07:31:38;;;;;;;13.18;7.75;;;18.00;92.80;;;;;;5109790;28;20073;-84
2023/05/01 07:34:04;;;;;;;8.63;7.65;;;18.30;94.90;;;;;;5107161;28;20067;-84
2023/05/01 07:36:29;;;;;;;10.27;7.32;;;18.30;93.70;;;;;;5100101;28;20020;-83
2023/05/01 07:38:56;;;;;;;11.75;7.72;;;18.20;90.90;;;;;;5094896;28;20024;-84
2023/05/01 07:41:23;;;;;;;8.98;6.97;;;18.20;91.30;;;;;;5096010;28;20024;-83
2023/05/01 07:43:49;;;;;;;8.55;6.63;;;18.10;85.90;;;;;;5094573;28;20060;-84
2023/05/01 07:46:15;;;;;;;10.82;7.28;;;18.40;90.10;;;;;;5094243;28;20048;-83
2023/05/01 07:48:41;;;;;;;12.65;7.25;;;18.60;88.50;;;;;;5094642;28;20454;-84
2023/05/01 07:51:07;;;;;;;9.20;6.90;;;18.70;86.80;;;;;;5094280;28;20447;-84
2023/05/01 07:53:33;;;;;;;8.18;7.38;;;18.90;86.00;;;;;;5094219;28;20035;-84
2023/05/01 07:56:07;;;;;;;11.43;7.97;;;18.90;84.00;;;;;;5094185;28;20027;-84
2023/05/01 07:58:34;;;;;;;9.07;7.50;;;19.00;84.60;;;;;;5092857;28;20023;-83
2023/05/01 08:01:00;;;;;;;11.80;7.43;;;19.10;83.60;;;;;;5095657;28;20078;-85
2023/05/01 08:03:30;;;;;;;8.73;7.85;;;;;;;;;;5094020;28;20020;-84
2023/05/01 08:05:56;;;;;;;11.27;7.78;;;19.30;81.80;;;;;;5094630;28;20115;-84
2023/05/01 08:08:22;;;;;;;9.60;8.63;;;19.40;85.70;;;;;;5096098;28;20107;-82
2023/05/01 08:10:48;;;;;;;8.45;7.55;;;19.40;83.30;;;;;;5092860;28;20103;-84
2023/05/01 08:13:14;;;;;;;9.18;7.75;;;19.70;85.90;;;;;;5083631;28;20024;-84
2023/05/01 08:15:41;;;;;;;9.13;8.23;;;19.60;82.80;;;;;;5093479;28;20023;-85
2023/05/01 08:18:11;;;;;;;12.85;9.13;;;19.70;84.60;;;;;;5094353;28;20412;-83
2023/05/01 08:20:37;;;;;;;16.42;7.78;;;19.90;84.50;;;;;;5094726;28;20024;-84
2023/05/01 08:23:02;;;;;;;13.75;7.55;;;19.90;82.40;;;;;;5094025;28;20362;-83
2023/05/01 08:25:30;;;;;;;9.05;8.10;;;19.90;80.10;;;;;;5107133;28;20044;-88
2023/05/01 08:27:56;;;;;;;9.32;8.30;;;19.80;79.70;;;;;;5095797;28;20047;-85
2023/05/01 08:30:22;;;;;;;9.30;8.35;;;19.90;79.50;;;;;;5082722;28;20007;-85
2023/05/01 08:32:48;;;;;;;8.65;7.82;;;;;;;;;;5097915;28;20031;-84
2023/05/01 08:35:14;;;;;;;9.90;7.85;;;;;;;;;;5095088;28;20161;-85
2023/05/01 08:37:40;;;;;;;10.02;9.02;;;20.60;79.60;;;;;;5097250;28;20335;-85
2023/05/01 08:40:09;;;;;;;10.82;7.93;;;20.80;79.60;;;;;;5097158;28;20023;-86
2023/05/01 08:42:36;;;;;;;9.73;8.25;;;20.80;74.60;;;;;;5109819;28;20028;-85
2023/05/01 08:45:06;;;;;;;10.32;8.10;;;20.70;75.80;;;;;;5100289;28;20089;-84
2023/05/01 08:47:37;;;;;;;9.50;7.70;;;20.70;76.50;;;;;;5094100;28;20024;-83
2023/05/01 08:50:03;;;;;;;10.17;8.53;;;20.30;73.10;;;;;;5097056;28;20394;-85
2023/05/01 08:52:31;;;;;;;15.73;8.20;;;20.00;72.70;;;;;;5107285;28;20385;-83
2023/05/01 08:55:00;;;;;;;9.60;8.25;;;20.40;78.60;;;;;;5093773;28;20027;-85
2023/05/01 08:57:26;;;;;;;8.93;7.93;;;;;;;;;;5087304;28;20024;-83
2023/05/01 08:59:53;;;;;;;10.40;8.68;;;21.30;93.80;;;;;;5095083;28;20019;-82
2023/05/01 09:02:23;;;;;;;9.75;8.40;;;21.30;72.90;;;;;;5095883;28;20024;-81
2023/05/01 09:04:51;;;;;;;10.13;8.15;;;21.40;73.30;;;;;;5095055;28;20118;-82
2023/05/01 09:07:17;;;;;;;10.77;8.63;;;;;;;;;;5111355;28;20525;-86
2023/05/01 09:09:43;;;;;;;10.98;7.80;;;21.70;73.30;;;;;;5114580;28;20068;-84
2023/05/01 09:12:25;;;;;;;8.50;7.30;;;21.70;71.20;;;;;;5105469;28;20028;-85
2023/05/01 09:14:54;;;;;;;;;;;21.80;70.70;;;;;;5112904;28;20339;-83
2023/05/01 09:17:24;;;;;;;9.07;8.05;;;22.10;70.10;;;;;;5096510;28;20253;-84
2023/05/01 09:19:50;;;;;;;8.15;7.32;;;;;;;;;;5095596;28;20485;-81
2023/05/01 09:22:17;;;;;;;8.57;7.35;;;22.30;79.10;;;;;;5096570;28;20092;-82
2023/05/01 09:24:44;;;;;;;10.50;8.85;;;;;;;;;;5093078;28;20125;-83
2023/05/01 09:27:12;;;;;;;7.85;7.05;;;;;;;;;;5093023;28;20020;-81
2023/05/01 09:29:39;;;;;;;9.23;6.22;;;;;;;;;;5092105;28;20055;-83
2023/05/01 09:32:19;;;;;;;6.03;5.57;;;;;;;;;;5073074;28;20030;-81
2023/05/01 09:34:45;;;;;;;11.57;8.85;;;;;;;;;;5072810;28;20033;-79
2023/05/01 09:37:13;;;;;;;9.48;8.30;;;;;;;;;;5093236;28;20052;-80
2023/05/01 09:39:39;;;;;;;9.90;8.00;;;;;;;;;;5093296;28;20023;-81
2023/05/01 09:42:05;;;;;;;21.65;11.70;;;;;;;;;;5080854;28;20036;-82
2023/05/01 09:44:41;;;;;;;7.93;7.13;;;;;;;;;;5072801;28;20067;-82
2023/05/01 09:47:08;;;;;;;6.57;5.95;;;;;;;;;;5071764;28;20405;-82
2023/05/01 09:49:48;;;;;;;17.48;13.20;;;;;;;;;;5072530;28;20023;-81
2023/05/01 09:52:14;;;;;;;77.80;38.10;;;;;;;;;;5072694;28;20016;-84
2023/05/01 09:54:41;;;;;;;20.20;13.52;;;;;;;;;;5072487;28;20020;-84
2023/05/01 09:57:07;;;;;;;9.38;8.48;;;;;;;;;;5077407;28;20024;-82
2023/05/01 09:59:33;;;;;;;8.20;7.38;;;;;;;;;;5093475;28;20008;-82
2023/05/01 10:02:00;;;;;;;10.10;8.57;;;;;;;;;;5076211;28;20043;-82
2023/05/01 10:04:33;;;;;;;38.50;23.48;;;;;;;;;;5084614;28;20013;-84
2023/05/01 10:07:12;;;;;;;6.47;5.97;;;;;;;;;;5072628;28;20028;-83
2023/05/01 10:09:40;;;;;;;7.30;6.53;;;;;;;;;;5085426;28;20016;-83
2023/05/01 10:12:06;;;;;;;8.55;7.70;;;;;;;;;;5091932;28;20028;-82
2023/05/01 10:14:37;;;;;;;9.73;6.68;;;;;;;;;;5088778;28;20025;-84
2023/05/01 10:17:19;;;;;;;84.28;37.00;;;;;;;;;;5091486;28;20020;-81
2023/05/01 10:19:46;;;;;;;;;;;;;;;;;;5093010;28;20378;-83
2023/05/01 10:22:12;;;;;;;48.65;23.50;;;;;;;;;;5092120;28;19957;-84
2023/05/01 10:24:41;;;;;;;29.40;16.75;;;;;;;;;;5090852;28;20046;-82
2023/05/01 10:27:07;;;;;;;9.73;8.23;;;;;;;;;;5077550;28;20433;-83
2023/05/01 10:29:37;;;;;;;14.23;10.45;;;;;;;;;;5073300;28;20035;-85
2023/05/01 10:32:07;;;;;;;8.23;6.68;;;;;;;;;;5073593;28;20027;-83
2023/05/01 10:34:41;;;;;;;7.90;7.30;;;;;;;;;;5073377;28;20406;-81
2023/05/01 10:37:13;;;;;;;10.25;9.25;;;;;;;;;;5084719;28;20095;-84
2023/05/01 10:39:39;;;;;;;;;;;;;;;;;;5090146;28;20041;-82
2023/05/01 10:42:09;;;;;;;29.73;15.30;;;;;;;;;;5073682;28;19961;-84
2023/05/01 10:44:36;;;;;;;7.82;7.13;;;;;;;;;;5084586;28;20024;-83
2023/05/01 10:47:21;;;;;;;7.63;6.97;;;;;;;;;;5093663;28;20028;-83
2023/05/01 10:50:09;;;;;;;7.90;7.10;;;;;;;;;;5092122;28;20111;-83
2023/05/01 10:52:53;;;;;;;29.90;18.70;;;;;;;;;;5078080;28;20510;-84
2023/05/01 10:55:35;;;;;;;16.90;12.70;;;;;;;;;;5072764;28;20031;-84
2023/05/01 10:58:02;;;;;;;45.78;27.95;;;;;;;;;;5082105;28;20024;-82
2023/05/01 11:00:28;;;;;;;8.15;7.45;;;;;;;;;;5092239;28;20028;-83
2023/05/01 11:03:13;;;;;;;7.10;6.40;;;;;;;;;;5082532;28;20021;-83
2023/05/01 11:05:58;;;;;;;6.38;5.85;;;;;;;;;;5072545;28;20027;-82
2023/05/01 11:08:31;;;;;;;7.45;6.68;;;;;;;;;;5071990;28;20489;-82
2023/05/01 11:10:57;;;;;;;7.28;6.57;;;;;;;;;;5073067;28;20056;-83
2023/05/01 11:13:42;;;;;;;6.57;6.07;;;;;;;;;;5076686;28;20070;-83
2023/05/01 11:16:27;;;;;;;7.70;6.95;;;;;;;;;;5075671;28;20032;-81
2023/05/01 11:18:53;;;;;;;7.85;7.03;;;;;;;;;;5075086;28;20101;-82
2023/05/01 11:21:28;;;;;;;6.95;6.35;;;;;;;;;;5075712;28;20029;-83
2023/05/01 11:23:55;;;;;;;7.32;6.63;;;;;;;;;;5080146;28;20101;-81
2023/05/01 11:26:22;;;;;;;7.80;7.07;;;;;;;;;;5097073;28;20042;-82
2023/05/01 11:28:52;;;;;;;6.97;6.32;;;;;;;;;;5099349;28;20023;-82
2023/05/01 11:31:18;;;;;;;6.43;5.93;;;;;;;;;;5116964;28;20407;-82
2023/05/01 11:33:45;;;;;;;6.47;5.93;;;;;;;;;;5098721;28;20111;-81
2023/05/01 11:36:11;;;;;;;7.03;6.43;;;;;;;;;;5098856;28;20024;-82
2023/05/01 11:38:38;;;;;;;5.85;5.45;;;;;;;;;;5095541;28;20069;-79
2023/05/01 11:41:04;;;;;;;7.20;6.60;;;;;;;;;;5095143;28;20016;-81
2023/05/01 11:43:31;;;;;;;7.43;6.70;;;;;;;;;;5095209;28;20019;-80
2023/05/01 11:46:01;;;;;;;6.93;6.35;;;;;;;;;;5095362;28;20034;-81
2023/05/01 11:48:30;;;;;;;9.93;8.90;;;;;;;;;;5098511;28;20019;-81
2023/05/01 11:50:56;;;;;;;7.65;6.95;;;;;;;;;;5098623;28;20020;-79
2023/05/01 11:53:23;;;;;;;7.38;6.68;;;;;;;;;;5106054;28;20019;-80
2023/05/01 11:55:50;;;;;;;7.13;6.63;;;;;;;;;;5095372;28;20043;-81
2023/05/01 11:58:16;;;;;;;6.47;5.97;;;;;;;;;;5098525;28;20339;-78
2023/05/01 12:00:43;;;;;;;6.85;6.30;;;;;;;;;;5096650;28;20064;-79
2023/05/01 12:03:10;;;;;;;7.32;6.82;;;;;;;;;;5096468;28;20020;-82
2023/05/01 12:05:37;;;;;;;7.43;6.65;;;;;;;;;;5096335;28;20026;-80
2023/05/01 12:08:11;;;;;;;9.20;6.22;;;;;;;;;;5095987;28;20020;-81
2023/05/01 12:10:38;;;;;;;6.40;5.97;;;;;;;;;;5096109;28;20016;-80
2023/05/01 12:13:05;;;;;;;7.53;6.93;;;;;;;;;;5096175;28;20099;-78
2023/05/01 12:15:31;;;;;;;7.55;7.00;;;;;;;;;;5096055;28;20032;-78
2023/05/01 12:17:58;;;;;;;6.80;6.30;;;;;;;;;;5096453;28;20465;-79
2023/05/01 12:20:37;;;;;;;7.28;6.68;;;;;;;;;;5094783;28;20016;-79
2023/05/01 12:23:04;;;;;;;6.82;6.38;;;;;;;;;;5094264;28;20017;-81
2023/05/01 12:25:32;;;;;;;7.32;6.82;;;;;;;;;;5094190;28;20482;-80
2023/05/01 12:27:59;;;;;;;7.72;6.97;;;;;;;;;;5094628;28;20051;-82
2023/05/01 12:30:26;;;;;;;7.90;7.40;;;;;;;;;;5094066;28;20078;-79
2023/05/01 12:32:52;;;;;;;7.53;7.03;;;;;;;;;;5093458;28;20062;-82
2023/05/01 12:35:18;;;;;;;7.00;6.40;;;;;;;;;;5075872;28;20079;-78
2023/05/01 12:37:45;;;;;;;7.20;6.70;;;;;;;;;;5076310;28;20034;-78
2023/05/01 12:40:14;;;;;;;6.10;5.70;;;;;;;;;;5093297;28;20024;-80
2023/05/01 12:42:41;;;;;;;10.07;6.50;;;;;;;;;;5092027;28;20024;-81
2023/05/01 12:45:09;;;;;;;7.07;6.57;;;;;;;;;;5072940;28;20115;-81
2023/05/01 12:47:38;;;;;;;7.35;6.85;;;;;;;;;;5091723;28;20028;-80
2023/05/01 12:50:04;;;;;;;7.85;7.07;;;;;;;;;;5075996;28;20020;-80
2023/05/01 12:52:31;;;;;;;6.35;5.85;;;;;;;;;;5092977;28;20498;-79
2023/05/01 12:55:04;;;;;;;6.85;6.32;;;;;;;;;;5075918;28;20089;-80
2023/05/01 12:57:31;;;;;;;6.60;6.10;;;;;;;;;;5075510;28;20045;-82
2023/05/01 13:00:00;;;;;;;6.00;5.60;;;;;;;;;;5075999;28;20024;-78
2023/05/01 13:02:33;;;;;;;6.57;6.18;;;;;;;;;;5074686;28;20501;-80
2023/05/01 13:05:09;;;;;;;6.65;6.15;;;;;;;;;;5103857;28;20059;-79
2023/05/01 13:07:37;;;;;;;7.28;6.68;;;;;;;;;;5094908;28;20516;-80
2023/05/01 13:10:05;;;;;;;7.07;6.57;;;;;;;;;;5095809;28;20024;-80
2023/05/01 13:12:31;;;;;;;7.80;7.20;;;;;;;;;;5096469;28;20053;-80
2023/05/01 13:14:58;;;;;;;7.28;6.68;;;;;;;;;;5093581;28;20024;-81
2023/05/01 13:17:28;;;;;;;7.50;6.90;;;;;;;;;;5093231;28;20454;-79
2023/05/01 13:19:55;;;;;;;7.53;6.93;;;;;;;;;;5095300;28;20446;-80
2023/05/01 13:22:31;;;;;;;6.90;6.40;;;;;;;;;;5114508;28;20011;-79
2023/05/01 13:24:58;;;;;;;7.72;7.13;;;;;;;;;;5111621;28;20039;-79